sensor_id;sensor_type;location;lat;lon;timestamp;P1;durP1;ratioP1;P2;durP2;ratioP2
75739;SDS011;64357;51.344;6.550;2023-04-01T00:00:52;3.05;;;0.50;;
75739;SDS011;64357;51.344;6.550;2023-04-01T00:03:19;2.30;;;0.57;;
75739;SDS011;64357;51.344;6.550;2023-04-01T00:05:46;1.92;;;0.50;;
75739;SDS011;64357;51.344;6.550;2023-04-01T00:08:11;3.33;;;0.63;;
75739;SDS011;64357;51.344;6.550;2023-04-01T00:10:39;2.45;;;0.85;;
75739;SDS011;64357;51.344;6.550;2023-04-01T00:15:40;2.30;;;0.60;;
75739;SDS011;64357;51.344;6.550;2023-04-01T00:18:06;2.05;;;0.35;;
75739;SDS011;64357;51.344;6.550;2023-04-01T00:20:32;1.50;;;0.65;;
75739;SDS011;64357;51.344;6.550;2023-04-01T00:22:58;1.45;;;0.50;;
75739;SDS011;64357;51.344;6.550;2023-04-01T00:25:23;4.28;;;0.50;;
75739;SDS011;64357;51.344;6.550;2023-04-01T00:27:49;2.17;;;0.57;;
75739;SDS011;64357;51.344;6.550;2023-04-01T00:30:15;2.60;;;0.40;;
75739;SDS011;64357;51.344;6.550;2023-04-01T00:32:41;2.35;;;0.50;;
75739;SDS011;64357;51.344;6.550;2023-04-01T00:35:06;2.42;;;0.50;;
75739;SDS011;64357;51.344;6.550;2023-04-01T00:37:34;3.55;;;0.50;;
75739;SDS011;64357;51.344;6.550;2023-04-01T00:40:04;0.75;;;0.20;;
75739;SDS011;64357;51.344;6.550;2023-04-01T00:42:31;0.50;;;0.28;;
75739;SDS011;64357;51.344;6.550;2023-04-01T00:44:57;1.02;;;0.17;;
75739;SDS011;64357;51.344;6.550;2023-04-01T00:47:22;1.40;;;0.47;;
75739;SDS011;64357;51.344;6.550;2023-04-01T00:49:52;0.60;;;0.20;;
75739;SDS011;64357;51.344;6.550;2023-04-01T00:52:23;1.05;;;0.28;;
75739;SDS011;64357;51.344;6.550;2023-04-01T00:54:53;1.58;;;0.25;;
75739;SDS011;64357;51.344;6.550;2023-04-01T00:57:28;0.73;;;0.20;;
75739;SDS011;64357;51.344;6.550;2023-04-01T00:59:57;2.30;;;0.60;;
75739;SDS011;64357;51.344;6.550;2023-04-01T01:02:24;3.47;;;0.50;;
75739;SDS011;64357;51.344;6.550;2023-04-01T01:04:49;0.65;;;0.30;;
75739;SDS011;64357;51.344;6.550;2023-04-01T01:20:37;4.65;;;0.32;;
75739;SDS011;64357;51.344;6.550;2023-04-01T01:23:18;1.05;;;0.32;;
75739;SDS011;64357;51.344;6.550;2023-04-01T01:29:01;7.20;;;0.65;;
75739;SDS011;64357;51.344;6.550;2023-04-01T01:34:40;2.65;;;0.30;;
75739;SDS011;64357;51.344;6.550;2023-04-01T01:37:16;1.35;;;0.30;;
75739;SDS011;64357;51.344;6.550;2023-04-01T01:39:45;1.15;;;0.20;;
75739;SDS011;64357;51.344;6.550;2023-04-01T01:42:15;1.92;;;0.30;;
75739;SDS011;64357;51.344;6.550;2023-04-01T01:44:44;1.25;;;0.30;;
75739;SDS011;64357;51.344;6.550;2023-04-01T01:47:11;1.65;;;0.20;;
75739;SDS011;64357;51.344;6.550;2023-04-01T01:49:39;2.13;;;0.32;;
75739;SDS011;64357;51.344;6.550;2023-04-01T01:52:07;1.60;;;0.30;;
75739;SDS011;64357;51.344;6.550;2023-04-01T01:54:32;0.80;;;0.30;;
75739;SDS011;64357;51.344;6.550;2023-04-01T01:57:06;1.25;;;0.30;;
75739;SDS011;64357;51.344;6.550;2023-04-01T01:59:35;2.40;;;0.50;;
75739;SDS011;64357;51.344;6.550;2023-04-01T02:02:03;1.60;;;0.43;;
75739;SDS011;64357;51.344;6.550;2023-04-01T02:04:34;2.72;;;0.40;;
75739;SDS011;64357;51.344;6.550;2023-04-01T02:07:04;0.15;;;0.10;;
75739;SDS011;64357;51.344;6.550;2023-04-01T02:09:45;1.23;;;0.45;;
75739;SDS011;64357;51.344;6.550;2023-04-01T02:12:14;1.63;;;0.40;;
75739;SDS011;64357;51.344;6.550;2023-04-01T02:17:16;0.38;;;0.30;;
75739;SDS011;64357;51.344;6.550;2023-04-01T02:22:22;1.48;;;0.40;;
75739;SDS011;64357;51.344;6.550;2023-04-01T02:24:50;1.45;;;0.28;;
75739;SDS011;64357;51.344;6.550;2023-04-01T02:27:22;2.08;;;0.40;;
75739;SDS011;64357;51.344;6.550;2023-04-01T02:29:48;1.83;;;0.50;;
75739;SDS011;64357;51.344;6.550;2023-04-01T02:32:15;2.05;;;0.50;;
75739;SDS011;64357;51.344;6.550;2023-04-01T02:34:42;2.40;;;0.50;;
75739;SDS011;64357;51.344;6.550;2023-04-01T02:37:08;2.38;;;0.30;;
75739;SDS011;64357;51.344;6.550;2023-04-01T02:39:33;1.95;;;0.50;;
75739;SDS011;64357;51.344;6.550;2023-04-01T02:42:01;2.22;;;0.50;;
75739;SDS011;64357;51.344;6.550;2023-04-01T02:44:26;1.77;;;0.30;;
75739;SDS011;64357;51.344;6.550;2023-04-01T02:46:52;1.35;;;0.40;;
75739;SDS011;64357;51.344;6.550;2023-04-01T02:49:20;3.97;;;0.60;;
75739;SDS011;64357;51.344;6.550;2023-04-01T02:51:48;1.00;;;0.40;;
75739;SDS011;64357;51.344;6.550;2023-04-01T02:54:13;2.27;;;0.70;;
75739;SDS011;64357;51.344;6.550;2023-04-01T02:56:41;1.83;;;0.32;;
75739;SDS011;64357;51.344;6.550;2023-04-01T02:59:10;2.58;;;0.40;;
75739;SDS011;64357;51.344;6.550;2023-04-01T03:01:38;2.58;;;0.43;;
75739;SDS011;64357;51.344;6.550;2023-04-01T03:04:05;2.53;;;0.60;;
75739;SDS011;64357;51.344;6.550;2023-04-01T03:06:30;0.55;;;0.40;;
75739;SDS011;64357;51.344;6.550;2023-04-01T03:08:56;1.27;;;0.33;;
75739;SDS011;64357;51.344;6.550;2023-04-01T03:11:24;2.63;;;0.47;;
75739;SDS011;64357;51.344;6.550;2023-04-01T03:13:51;2.15;;;0.50;;
75739;SDS011;64357;51.344;6.550;2023-04-01T03:16:19;0.60;;;0.50;;
75739;SDS011;64357;51.344;6.550;2023-04-01T03:18:44;0.65;;;0.40;;
75739;SDS011;64357;51.344;6.550;2023-04-01T03:21:21;2.13;;;0.40;;
75739;SDS011;64357;51.344;6.550;2023-04-01T03:23:50;1.77;;;0.60;;
75739;SDS011;64357;51.344;6.550;2023-04-01T03:26:16;0.80;;;0.50;;
75739;SDS011;64357;51.344;6.550;2023-04-01T03:28:44;2.45;;;0.70;;
75739;SDS011;64357;51.344;6.550;2023-04-01T03:31:09;2.58;;;0.82;;
75739;SDS011;64357;51.344;6.550;2023-04-01T03:33:35;3.40;;;0.70;;
75739;SDS011;64357;51.344;6.550;2023-04-01T03:36:03;1.38;;;0.63;;
75739;SDS011;64357;51.344;6.550;2023-04-01T03:38:31;1.35;;;0.50;;
75739;SDS011;64357;51.344;6.550;2023-04-01T03:41:00;3.30;;;0.75;;
75739;SDS011;64357;51.344;6.550;2023-04-01T03:43:26;0.88;;;0.60;;
75739;SDS011;64357;51.344;6.550;2023-04-01T03:45:54;1.63;;;0.60;;
75739;SDS011;64357;51.344;6.550;2023-04-01T03:48:22;1.98;;;0.70;;
75739;SDS011;64357;51.344;6.550;2023-04-01T03:50:47;1.10;;;0.43;;
75739;SDS011;64357;51.344;6.550;2023-04-01T03:53:13;0.95;;;0.40;;
75739;SDS011;64357;51.344;6.550;2023-04-01T03:55:40;1.88;;;0.50;;
75739;SDS011;64357;51.344;6.550;2023-04-01T03:58:06;2.07;;;0.57;;
75739;SDS011;64357;51.344;6.550;2023-04-01T04:00:35;0.65;;;0.32;;
75739;SDS011;64357;51.344;6.550;2023-04-01T04:03:03;2.45;;;0.40;;
75739;SDS011;64357;51.344;6.550;2023-04-01T04:05:33;1.70;;;0.50;;
75739;SDS011;64357;51.344;6.550;2023-04-01T04:08:00;2.08;;;0.50;;
75739;SDS011;64357;51.344;6.550;2023-04-01T04:10:28;0.98;;;0.50;;
75739;SDS011;64357;51.344;6.550;2023-04-01T04:12:54;1.08;;;0.50;;
75739;SDS011;64357;51.344;6.550;2023-04-01T04:15:20;1.58;;;0.68;;
75739;SDS011;64357;51.344;6.550;2023-04-01T04:17:48;2.70;;;0.75;;
75739;SDS011;64357;51.344;6.550;2023-04-01T04:20:17;3.33;;;0.63;;
75739;SDS011;64357;51.344;6.550;2023-04-01T04:22:43;3.20;;;0.73;;
75739;SDS011;64357;51.344;6.550;2023-04-01T04:25:08;2.80;;;0.60;;
75739;SDS011;64357;51.344;6.550;2023-04-01T04:27:36;2.20;;;0.70;;
75739;SDS011;64357;51.344;6.550;2023-04-01T04:30:02;1.77;;;0.70;;
75739;SDS011;64357;51.344;6.550;2023-04-01T04:32:29;1.70;;;0.65;;
75739;SDS011;64357;51.344;6.550;2023-04-01T04:34:55;2.70;;;0.82;;
75739;SDS011;64357;51.344;6.550;2023-04-01T04:37:20;2.97;;;0.63;;
75739;SDS011;64357;51.344;6.550;2023-04-01T04:39:45;2.03;;;0.80;;
75739;SDS011;64357;51.344;6.550;2023-04-01T04:42:15;2.67;;;0.82;;
75739;SDS011;64357;51.344;6.550;2023-04-01T04:44:41;2.22;;;0.68;;
75739;SDS011;64357;51.344;6.550;2023-04-01T04:47:09;1.73;;;0.50;;
75739;SDS011;64357;51.344;6.550;2023-04-01T04:49:34;4.35;;;0.90;;
75739;SDS011;64357;51.344;6.550;2023-04-01T04:52:02;2.10;;;0.88;;
75739;SDS011;64357;51.344;6.550;2023-04-01T04:54:29;2.25;;;0.85;;
75739;SDS011;64357;51.344;6.550;2023-04-01T04:56:55;3.53;;;0.88;;
75739;SDS011;64357;51.344;6.550;2023-04-01T04:59:21;2.20;;;0.97;;
75739;SDS011;64357;51.344;6.550;2023-04-01T05:01:46;3.20;;;1.10;;
75739;SDS011;64357;51.344;6.550;2023-04-01T05:04:11;1.87;;;0.90;;
75739;SDS011;64357;51.344;6.550;2023-04-01T05:06:37;2.27;;;0.90;;
75739;SDS011;64357;51.344;6.550;2023-04-01T05:09:02;3.03;;;1.27;;
75739;SDS011;64357;51.344;6.550;2023-04-01T05:11:29;3.67;;;1.30;;
75739;SDS011;64357;51.344;6.550;2023-04-01T05:13:57;2.07;;;1.03;;
75739;SDS011;64357;51.344;6.550;2023-04-01T05:16:22;3.67;;;1.20;;
75739;SDS011;64357;51.344;6.550;2023-04-01T05:18:50;3.67;;;1.30;;
75739;SDS011;64357;51.344;6.550;2023-04-01T05:21:18;4.32;;;1.60;;
75739;SDS011;64357;51.344;6.550;2023-04-01T05:23:43;4.70;;;1.27;;
75739;SDS011;64357;51.344;6.550;2023-04-01T05:26:12;5.13;;;1.50;;
75739;SDS011;64357;51.344;6.550;2023-04-01T05:28:39;3.50;;;1.25;;
75739;SDS011;64357;51.344;6.550;2023-04-01T05:31:05;5.53;;;1.58;;
75739;SDS011;64357;51.344;6.550;2023-04-01T05:33:33;3.42;;;1.50;;
75739;SDS011;64357;51.344;6.550;2023-04-01T05:38:33;4.15;;;1.63;;
75739;SDS011;64357;51.344;6.550;2023-04-01T05:41:02;3.85;;;1.52;;
75739;SDS011;64357;51.344;6.550;2023-04-01T05:43:27;5.20;;;1.77;;
75739;SDS011;64357;51.344;6.550;2023-04-01T05:45:54;5.97;;;2.00;;
75739;SDS011;64357;51.344;6.550;2023-04-01T05:48:20;5.90;;;2.00;;
75739;SDS011;64357;51.344;6.550;2023-04-01T05:50:45;5.87;;;2.50;;
75739;SDS011;64357;51.344;6.550;2023-04-01T05:53:11;5.53;;;2.10;;
75739;SDS011;64357;51.344;6.550;2023-04-01T05:55:38;5.65;;;1.98;;
75739;SDS011;64357;51.344;6.550;2023-04-01T05:58:06;3.83;;;1.63;;
75739;SDS011;64357;51.344;6.550;2023-04-01T06:00:31;6.55;;;2.42;;
75739;SDS011;64357;51.344;6.550;2023-04-01T06:03:02;5.90;;;2.10;;
75739;SDS011;64357;51.344;6.550;2023-04-01T06:05:29;5.90;;;1.98;;
75739;SDS011;64357;51.344;6.550;2023-04-01T06:07:59;6.63;;;2.20;;
75739;SDS011;64357;51.344;6.550;2023-04-01T06:13:29;5.20;;;1.90;;
75739;SDS011;64357;51.344;6.550;2023-04-01T06:16:21;6.47;;;2.38;;
75739;SDS011;64357;51.344;6.550;2023-04-01T06:25:04;8.98;;;2.58;;
75739;SDS011;64357;51.344;6.550;2023-04-01T06:47:30;4.32;;;1.63;;
75739;SDS011;64357;51.344;6.550;2023-04-01T06:52:53;3.15;;;1.30;;
75739;SDS011;64357;51.344;6.550;2023-04-01T06:55:30;2.38;;;1.15;;
75739;SDS011;64357;51.344;6.550;2023-04-01T06:58:03;3.72;;;1.30;;
75739;SDS011;64357;51.344;6.550;2023-04-01T07:00:32;3.05;;;1.13;;
75739;SDS011;64357;51.344;6.550;2023-04-01T07:06:14;3.25;;;1.50;;
75739;SDS011;64357;51.344;6.550;2023-04-01T07:08:50;2.30;;;1.00;;
75739;SDS011;64357;51.344;6.550;2023-04-01T07:11:33;2.67;;;1.30;;
75739;SDS011;64357;51.344;6.550;2023-04-01T07:22:00;3.55;;;1.30;;
75739;SDS011;64357;51.344;6.550;2023-04-01T07:26:56;3.72;;;1.45;;
75739;SDS011;64357;51.344;6.550;2023-04-01T07:29:22;2.03;;;1.08;;
75739;SDS011;64357;51.344;6.550;2023-04-01T07:37:15;2.70;;;1.33;;
75739;SDS011;64357;51.344;6.550;2023-04-01T07:39:53;3.45;;;1.38;;
75739;SDS011;64357;51.344;6.550;2023-04-01T07:45:14;4.18;;;1.55;;
75739;SDS011;64357;51.344;6.550;2023-04-01T07:47:45;5.80;;;1.77;;
75739;SDS011;64357;51.344;6.550;2023-04-01T08:00:55;3.55;;;1.80;;
75739;SDS011;64357;51.344;6.550;2023-04-01T08:08:58;7.55;;;1.70;;
75739;SDS011;64357;51.344;6.550;2023-04-01T08:12:27;5.03;;;1.88;;
75739;SDS011;64357;51.344;6.550;2023-04-01T08:14:52;5.53;;;2.42;;
75739;SDS011;64357;51.344;6.550;2023-04-01T08:20:25;4.95;;;1.90;;
75739;SDS011;64357;51.344;6.550;2023-04-01T08:25:38;6.13;;;2.25;;
75739;SDS011;64357;51.344;6.550;2023-04-01T08:28:11;4.50;;;1.85;;
75739;SDS011;64357;51.344;6.550;2023-04-01T08:30:42;2.88;;;1.40;;
75739;SDS011;64357;51.344;6.550;2023-04-01T08:33:24;5.22;;;1.67;;
75739;SDS011;64357;51.344;6.550;2023-04-01T08:36:53;2.92;;;1.33;;
75739;SDS011;64357;51.344;6.550;2023-04-01T08:56:06;8.27;;;3.10;;
75739;SDS011;64357;51.344;6.550;2023-04-01T09:01:39;7.53;;;2.65;;
75739;SDS011;64357;51.344;6.550;2023-04-01T09:10:22;6.60;;;2.67;;
75739;SDS011;64357;51.344;6.550;2023-04-01T09:13:13;6.20;;;2.50;;
75739;SDS011;64357;51.344;6.550;2023-04-01T09:16:16;4.03;;;2.03;;
75739;SDS011;64357;51.344;6.550;2023-04-01T09:30:17;5.93;;;2.58;;
75739;SDS011;64357;51.344;6.550;2023-04-01T09:38:26;6.40;;;2.78;;
75739;SDS011;64357;51.344;6.550;2023-04-01T09:41:09;8.35;;;3.13;;
75739;SDS011;64357;51.344;6.550;2023-04-01T09:43:47;7.25;;;3.45;;
75739;SDS011;64357;51.344;6.550;2023-04-01T09:49:34;9.20;;;3.97;;
75739;SDS011;64357;51.344;6.550;2023-04-01T10:01:02;9.27;;;4.15;;
75739;SDS011;64357;51.344;6.550;2023-04-01T10:04:49;7.30;;;3.25;;
75739;SDS011;64357;51.344;6.550;2023-04-01T10:15:16;13.32;;;4.20;;
75739;SDS011;64357;51.344;6.550;2023-04-01T10:21:16;9.75;;;3.13;;
75739;SDS011;64357;51.344;6.550;2023-04-01T10:48:09;7.38;;;2.95;;
75739;SDS011;64357;51.344;6.550;2023-04-01T10:51:01;8.13;;;3.05;;
75739;SDS011;64357;51.344;6.550;2023-04-01T10:56:32;7.75;;;3.58;;
75739;SDS011;64357;51.344;6.550;2023-04-01T11:11:02;8.95;;;3.38;;
75739;SDS011;64357;51.344;6.550;2023-04-01T11:16:53;10.02;;;3.72;;
75739;SDS011;64357;51.344;6.550;2023-04-01T11:23:10;7.75;;;3.25;;
75739;SDS011;64357;51.344;6.550;2023-04-01T11:36:55;6.63;;;2.50;;
75739;SDS011;64357;51.344;6.550;2023-04-01T11:48:40;7.35;;;2.85;;
75739;SDS011;64357;51.344;6.550;2023-04-01T11:51:25;8.07;;;2.88;;
75739;SDS011;64357;51.344;6.550;2023-04-01T12:11:00;10.35;;;3.63;;
75739;SDS011;64357;51.344;6.550;2023-04-01T12:19:04;6.13;;;2.65;;
75739;SDS011;64357;51.344;6.550;2023-04-01T12:22:23;11.65;;;4.30;;
75739;SDS011;64357;51.344;6.550;2023-04-01T12:24:49;8.52;;;3.03;;
75739;SDS011;64357;51.344;6.550;2023-04-01T12:32:49;8.25;;;3.47;;
75739;SDS011;64357;51.344;6.550;2023-04-01T12:52:09;5.60;;;2.33;;
75739;SDS011;64357;51.344;6.550;2023-04-01T12:54:48;6.38;;;2.40;;
75739;SDS011;64357;51.344;6.550;2023-04-01T13:11:27;7.00;;;3.17;;
75739;SDS011;64357;51.344;6.550;2023-04-01T13:20:15;7.30;;;2.65;;
75739;SDS011;64357;51.344;6.550;2023-04-01T13:25:38;5.63;;;2.23;;
75739;SDS011;64357;51.344;6.550;2023-04-01T13:28:24;6.28;;;2.28;;
75739;SDS011;64357;51.344;6.550;2023-04-01T13:30:58;9.27;;;3.30;;
75739;SDS011;64357;51.344;6.550;2023-04-01T13:33:42;5.93;;;2.05;;
75739;SDS011;64357;51.344;6.550;2023-04-01T13:55:37;5.00;;;1.73;;
75739;SDS011;64357;51.344;6.550;2023-04-01T14:16:21;4.55;;;1.77;;
75739;SDS011;64357;51.344;6.550;2023-04-01T14:19:22;7.10;;;2.03;;
75739;SDS011;64357;51.344;6.550;2023-04-01T14:24:45;5.40;;;1.85;;
75739;SDS011;64357;51.344;6.550;2023-04-01T14:27:31;3.50;;;1.17;;
75739;SDS011;64357;51.344;6.550;2023-04-01T14:30:15;5.10;;;2.13;;
75739;SDS011;64357;51.344;6.550;2023-04-01T14:41:48;4.93;;;1.73;;
75739;SDS011;64357;51.344;6.550;2023-04-01T14:44:44;5.57;;;2.10;;
75739;SDS011;64357;51.344;6.550;2023-04-01T14:52:42;6.03;;;1.90;;
75739;SDS011;64357;51.344;6.550;2023-04-01T14:55:23;3.55;;;1.65;;
75739;SDS011;64357;51.344;6.550;2023-04-01T14:57:58;5.70;;;2.00;;
75739;SDS011;64357;51.344;6.550;2023-04-01T15:25:53;6.38;;;2.35;;
75739;SDS011;64357;51.344;6.550;2023-04-01T15:31:57;4.60;;;1.48;;
75739;SDS011;64357;51.344;6.550;2023-04-01T15:34:34;6.22;;;2.00;;
75739;SDS011;64357;51.344;6.550;2023-04-01T15:45:01;5.38;;;1.80;;
75739;SDS011;64357;51.344;6.550;2023-04-01T15:53:03;4.18;;;1.80;;
75739;SDS011;64357;51.344;6.550;2023-04-01T16:10:19;4.85;;;1.83;;
75739;SDS011;64357;51.344;6.550;2023-04-01T16:12:58;6.88;;;2.20;;
75739;SDS011;64357;51.344;6.550;2023-04-01T16:15:56;5.53;;;1.73;;
75739;SDS011;64357;51.344;6.550;2023-04-01T16:24:34;4.45;;;2.00;;
75739;SDS011;64357;51.344;6.550;2023-04-01T16:30:02;5.90;;;2.33;;
75739;SDS011;64357;51.344;6.550;2023-04-01T16:32:57;5.38;;;2.25;;
75739;SDS011;64357;51.344;6.550;2023-04-01T16:35:42;6.30;;;2.15;;
75739;SDS011;64357;51.344;6.550;2023-04-01T16:41:17;7.80;;;2.45;;
75739;SDS011;64357;51.344;6.550;2023-04-01T16:51:26;5.63;;;1.60;;
75739;SDS011;64357;51.344;6.550;2023-04-01T16:59:44;6.05;;;2.15;;
75739;SDS011;64357;51.344;6.550;2023-04-01T17:02:16;6.70;;;2.78;;
75739;SDS011;64357;51.344;6.550;2023-04-01T17:04:59;6.80;;;2.80;;
75739;SDS011;64357;51.344;6.550;2023-04-01T17:24:05;7.53;;;3.10;;
75739;SDS011;64357;51.344;6.550;2023-04-01T17:32:00;5.40;;;2.15;;
75739;SDS011;64357;51.344;6.550;2023-04-01T17:37:20;6.95;;;2.90;;
75739;SDS011;64357;51.344;6.550;2023-04-01T17:42:52;7.80;;;3.30;;
75739;SDS011;64357;51.344;6.550;2023-04-01T18:10:20;8.98;;;3.17;;
75739;SDS011;64357;51.344;6.550;2023-04-01T18:21:23;9.10;;;4.00;;
75739;SDS011;64357;51.344;6.550;2023-04-01T18:23:56;8.75;;;3.65;;
75739;SDS011;64357;51.344;6.550;2023-04-01T18:26:29;10.07;;;4.53;;
75739;SDS011;64357;51.344;6.550;2023-04-01T18:29:11;9.02;;;3.42;;
75739;SDS011;64357;51.344;6.550;2023-04-01T18:31:43;10.07;;;4.03;;
75739;SDS011;64357;51.344;6.550;2023-04-01T18:34:20;9.65;;;4.30;;
75739;SDS011;64357;51.344;6.550;2023-04-01T18:39:36;9.10;;;3.35;;
75739;SDS011;64357;51.344;6.550;2023-04-01T18:42:43;6.82;;;2.72;;
75739;SDS011;64357;51.344;6.550;2023-04-01T18:45:35;8.13;;;3.20;;
75739;SDS011;64357;51.344;6.550;2023-04-01T18:51:38;5.43;;;1.80;;
75739;SDS011;64357;51.344;6.550;2023-04-01T18:54:12;7.78;;;2.47;;
75739;SDS011;64357;51.344;6.550;2023-04-01T18:56:39;6.93;;;2.67;;
75739;SDS011;64357;51.344;6.550;2023-04-01T18:59:45;7.22;;;2.80;;
75739;SDS011;64357;51.344;6.550;2023-04-01T19:25:13;8.40;;;2.67;;
75739;SDS011;64357;51.344;6.550;2023-04-01T19:27:51;5.10;;;2.08;;
75739;SDS011;64357;51.344;6.550;2023-04-01T19:30:33;7.22;;;2.80;;
75739;SDS011;64357;51.344;6.550;2023-04-01T19:33:07;5.00;;;1.85;;
75739;SDS011;64357;51.344;6.550;2023-04-01T19:49:48;8.98;;;3.50;;
75739;SDS011;64357;51.344;6.550;2023-04-01T19:52:37;7.70;;;3.00;;
75739;SDS011;64357;51.344;6.550;2023-04-01T19:58:21;6.28;;;2.15;;
75739;SDS011;64357;51.344;6.550;2023-04-01T20:00:57;3.92;;;1.70;;
75739;SDS011;64357;51.344;6.550;2023-04-01T20:09:09;3.13;;;1.30;;
75739;SDS011;64357;51.344;6.550;2023-04-01T20:14:50;4.07;;;1.73;;
75739;SDS011;64357;51.344;6.550;2023-04-01T20:36:58;5.40;;;2.28;;
75739;SDS011;64357;51.344;6.550;2023-04-01T20:58:53;4.63;;;1.80;;
75739;SDS011;64357;51.344;6.550;2023-04-01T21:04:30;6.25;;;2.53;;
75739;SDS011;64357;51.344;6.550;2023-04-01T21:16:52;6.38;;;1.92;;
75739;SDS011;64357;51.344;6.550;2023-04-01T21:22:38;1.30;;;0.73;;
75739;SDS011;64357;51.344;6.550;2023-04-01T21:28:39;2.55;;;1.23;;
75739;SDS011;64357;51.344;6.550;2023-04-01T21:31:48;3.60;;;1.50;;
75739;SDS011;64357;51.344;6.550;2023-04-01T21:46:47;4.05;;;1.70;;
75739;SDS011;64357;51.344;6.550;2023-04-01T22:04:31;5.38;;;2.58;;
75739;SDS011;64357;51.344;6.550;2023-04-01T22:08:21;2.72;;;1.00;;
75739;SDS011;64357;51.344;6.550;2023-04-01T22:11:18;3.60;;;1.40;;
75739;SDS011;64357;51.344;6.550;2023-04-01T22:19:56;3.30;;;1.40;;
75739;SDS011;64357;51.344;6.550;2023-04-01T22:31:06;4.72;;;1.92;;
75739;SDS011;64357;51.344;6.550;2023-04-01T22:43:59;5.25;;;1.88;;
75739;SDS011;64357;51.344;6.550;2023-04-01T22:55:00;8.57;;;3.33;;
75739;SDS011;64357;51.344;6.550;2023-04-01T23:00:06;5.95;;;2.35;;
75739;SDS011;64357;51.344;6.550;2023-04-01T23:03:27;4.55;;;1.58;;
75739;SDS011;64357;51.344;6.550;2023-04-01T23:05:53;4.18;;;1.58;;
75739;SDS011;64357;51.344;6.550;2023-04-01T23:11:19;2.08;;;1.05;;
75739;SDS011;64357;51.344;6.550;2023-04-01T23:13:49;6.70;;;2.22;;
75739;SDS011;64357;51.344;6.550;2023-04-01T23:16:31;4.18;;;1.67;;
75739;SDS011;64357;51.344;6.550;2023-04-01T23:19:22;5.50;;;1.88;;
75739;SDS011;64357;51.344;6.550;2023-04-01T23:22:01;3.47;;;1.52;;
75739;SDS011;64357;51.344;6.550;2023-04-01T23:24:37;6.22;;;2.13;;
75739;SDS011;64357;51.344;6.550;2023-04-01T23:27:51;4.40;;;1.23;;
75739;SDS011;64357;51.344;6.550;2023-04-01T23:36:02;7.30;;;2.70;;
75739;SDS011;64357;51.344;6.550;2023-04-01T23:38:42;2.97;;;1.25;;
75739;SDS011;64357;51.344;6.550;2023-04-01T23:43:47;5.03;;;1.98;;
75739;SDS011;64357;51.344;6.550;2023-04-01T23:46:25;3.88;;;1.60;;
75739;SDS011;64357;51.344;6.550;2023-04-01T23:48:51;5.35;;;1.85;;
75739;SDS011;64357;51.344;6.550;2023-04-01T23:51:18;6.03;;;1.90;;
75739;SDS011;64357;51.344;6.550;2023-04-01T23:53:48;4.32;;;1.98;;
75739;SDS011;64357;51.344;6.550;2023-04-01T23:56:41;5.60;;;2.10;;
75739;SDS011;64357;51.344;6.550;2023-04-01T23:59:18;5.10;;;1.70;;
